createdAt,value
2019-03-09T00:00:51.043Z,22.83
2019-03-09T00:05:59.012Z,20.60
2019-03-09T00:11:05.543Z,19.53
2019-03-09T00:16:12.783Z,18.60
2019-03-09T00:21:20.403Z,13.13
2019-03-09T00:26:52.642Z,17.13
2019-03-09T00:32:06.722Z,18.43
2019-03-09T00:37:13.983Z,15.77
2019-03-09T00:42:21.757Z,15.23
2019-03-09T00:47:29.878Z,13.87
2019-03-09T00:52:37.856Z,16.70
2019-03-09T00:57:45.110Z,13.10
2019-03-09T01:02:52.806Z,20.70
2019-03-09T01:08:01.606Z,17.47
2019-03-09T01:13:09.808Z,16.50
2019-03-09T01:18:17.350Z,17.07
2019-03-09T01:23:23.458Z,19.03
2019-03-09T01:28:31.228Z,17.17
2019-03-09T01:33:37.425Z,17.30
2019-03-09T01:38:43.821Z,15.17
2019-03-09T01:43:51.391Z,19.93
2019-03-09T01:48:59.298Z,20.40
2019-03-09T01:54:07.315Z,15.53
2019-03-09T01:59:13.726Z,14.17
2019-03-09T02:04:21.067Z,17.23
2019-03-09T02:09:28.724Z,16.10
2019-03-09T02:14:36.584Z,22.93
2019-03-09T02:19:42.866Z,20.17
2019-03-09T02:24:50.498Z,19.00
2019-03-09T02:29:58.386Z,21.23
2019-03-09T02:35:06.696Z,25.37
2019-03-09T02:40:18.986Z,17.03
2019-03-09T02:45:26.197Z,19.77
2019-03-09T02:50:32.935Z,22.77
2019-03-09T02:55:39.195Z,21.77
2019-03-09T03:00:50.539Z,19.33
2019-03-09T03:05:58.601Z,17.77
2019-03-09T03:11:06.317Z,20.57
2019-03-09T03:16:12.604Z,21.23
2019-03-09T03:21:21.179Z,20.17
2019-03-09T03:26:29.039Z,18.27
2019-03-09T03:31:36.243Z,19.13
2019-03-09T03:36:42.375Z,15.20
2019-03-09T03:41:50.378Z,18.20
2019-03-09T03:46:57.844Z,17.03
2019-03-09T03:52:04.213Z,16.43
2019-03-09T03:57:11.658Z,22.10
2019-03-09T04:02:19.625Z,18.30
2019-03-09T04:07:27.952Z,21.77
2019-03-09T04:12:34.906Z,19.20
2019-03-09T04:17:42.766Z,21.17
2019-03-09T04:22:51.504Z,20.10
2019-03-09T04:27:58.726Z,19.33
2019-03-09T04:33:06.539Z,22.00
2019-03-09T04:38:12.523Z,20.57
2019-03-09T04:43:20.197Z,20.07
2019-03-09T04:48:27.936Z,27.77
2019-03-09T04:53:33.818Z,22.37
2019-03-09T04:58:42.102Z,18.17
2019-03-09T05:04:02.524Z,27.90
2019-03-09T05:09:21.734Z,29.20
2019-03-09T05:14:28.238Z,22.57
2019-03-09T05:19:34.167Z,27.33
2019-03-09T05:24:41.063Z,22.73
2019-03-09T05:29:49.311Z,23.80
2019-03-09T05:34:56.632Z,29.60
2019-03-09T05:40:02.782Z,23.60
2019-03-09T05:45:10.769Z,24.03
2019-03-09T05:50:18.738Z,26.53
2019-03-09T05:55:24.643Z,32.37
2019-03-09T06:00:32.385Z,27.03
2019-03-09T06:05:45.579Z,33.00
2019-03-09T06:10:52.577Z,35.13
2019-03-09T06:15:59.215Z,50.20
2019-03-09T06:21:06.945Z,44.90
2019-03-09T06:26:14.844Z,35.93
2019-03-09T06:31:21.135Z,36.27
2019-03-09T06:37:01.066Z,36.97
2019-03-09T06:42:42.783Z,35.07
2019-03-09T06:47:50.636Z,34.03
2019-03-09T06:52:58.574Z,35.00
2019-03-09T06:58:04.971Z,29.23
2019-03-09T07:03:12.679Z,27.57
2019-03-09T07:08:20.440Z,27.23
2019-03-09T07:13:26.733Z,21.30
2019-03-09T07:18:35.791Z,24.00
2019-03-09T07:23:42.089Z,18.40
2019-03-09T07:28:49.883Z,20.60
2019-03-09T07:34:25.209Z,19.80
2019-03-09T07:39:33.699Z,17.73
2019-03-09T07:44:41.910Z,19.13
2019-03-09T07:49:49.932Z,20.10
2019-03-09T07:54:56.713Z,22.67
2019-03-09T08:00:03.089Z,15.70
2019-03-09T08:05:10.807Z,15.07
2019-03-09T08:10:19.666Z,5.73
2019-03-09T08:15:27.445Z,4.83
2019-03-09T08:20:33.922Z,5.80
2019-03-09T08:25:42.081Z,4.40
2019-03-09T08:30:49.983Z,8.53
2019-03-09T08:35:57.873Z,4.87
2019-03-09T08:41:04.944Z,4.90
2019-03-09T08:46:11.699Z,7.57
2019-03-09T08:51:19.453Z,6.63
2019-03-09T08:56:27.271Z,4.90
2019-03-09T09:01:33.488Z,4.90
2019-03-09T09:06:41.048Z,4.00
2019-03-09T09:11:47.017Z,8.57
2019-03-09T09:16:53.550Z,6.73
2019-03-09T09:22:01.313Z,6.67
2019-03-09T09:27:09.144Z,7.33
2019-03-09T09:32:16.762Z,4.80
2019-03-09T09:37:23.052Z,9.37
2019-03-09T09:42:29.325Z,8.73
2019-03-09T09:47:37.570Z,12.20
2019-03-09T09:52:43.688Z,7.80
2019-03-09T09:57:50.389Z,8.30
2019-03-09T10:02:58.175Z,9.47
2019-03-09T10:08:04.326Z,10.67
2019-03-09T10:13:12.141Z,9.20
2019-03-09T10:18:19.867Z,8.40
2019-03-09T10:23:26.836Z,9.50
2019-03-09T10:28:33.111Z,4.50
2019-03-09T10:33:41.031Z,8.47
2019-03-09T10:38:47.444Z,9.57
2019-03-09T10:43:53.943Z,7.20
2019-03-09T10:49:02.135Z,6.17
2019-03-09T10:54:09.954Z,5.33
2019-03-09T10:59:18.321Z,8.80
2019-03-09T11:04:27.822Z,7.23
2019-03-09T11:09:32.903Z,6.57
2019-03-09T11:14:40.511Z,6.63
2019-03-09T11:19:48.098Z,8.80
2019-03-09T11:25:03.042Z,7.60
2019-03-09T11:30:03.060Z,6.30
2019-03-09T11:35:09.267Z,6.00
2019-03-09T11:40:16.883Z,5.70
2019-03-09T11:45:23.166Z,13.27
2019-03-09T11:50:29.578Z,16.33
2019-03-09T11:55:37.669Z,13.07
2019-03-09T12:00:44.803Z,8.60
2019-03-09T12:05:51.851Z,11.23
2019-03-09T12:10:59.892Z,10.33
2019-03-09T12:16:07.879Z,16.40
2019-03-09T12:21:14.809Z,12.40
2019-03-09T12:26:21.221Z,15.30
2019-03-09T12:31:28.963Z,14.47
2019-03-09T12:36:35.603Z,20.87
2019-03-09T12:41:42.584Z,13.57
2019-03-09T12:46:50.749Z,14.40
2019-03-09T12:51:58.889Z,10.57
2019-03-09T12:57:05.356Z,12.97
2019-03-09T13:02:12.590Z,10.80
2019-03-09T13:07:21.193Z,10.43
2019-03-09T13:12:29.198Z,9.57
2019-03-09T13:17:36.880Z,12.23
2019-03-09T13:22:43.086Z,12.00
2019-03-09T13:27:50.686Z,12.57
2019-03-09T13:32:58.006Z,8.80
2019-03-09T13:38:05.907Z,6.50
2019-03-09T13:43:12.979Z,6.90
2019-03-09T13:48:21.154Z,8.33
2019-03-09T13:53:29.276Z,11.27
2019-03-09T13:58:37.709Z,6.97
2019-03-09T14:03:44.967Z,9.23
2019-03-09T14:08:51.560Z,4.23
2019-03-09T14:13:59.785Z,6.43
2019-03-09T14:19:07.707Z,7.40
2019-03-09T14:24:13.975Z,7.20
2019-03-09T14:29:22.018Z,8.10
2019-03-09T14:34:30.343Z,8.20
2019-03-09T14:39:38.011Z,7.00
2019-03-09T14:44:44.403Z,8.13
2019-03-09T14:49:51.996Z,12.63
2019-03-09T14:54:59.889Z,8.27
2019-03-09T15:00:10.790Z,9.17
2019-03-09T15:05:18.716Z,7.60
2019-03-09T15:10:25.185Z,8.67
2019-03-09T15:15:32.255Z,10.50
2019-03-09T15:20:39.743Z,8.67
2019-03-09T15:25:47.692Z,14.77
2019-03-09T15:30:55.073Z,7.00
2019-03-09T15:36:02.906Z,13.30
2019-03-09T15:41:11.029Z,12.13
2019-03-09T15:46:19.058Z,10.97
2019-03-09T15:51:26.021Z,10.07
2019-03-09T15:56:33.398Z,12.53
2019-03-09T16:01:41.514Z,12.93
2019-03-09T16:06:50.308Z,16.07
2019-03-09T16:11:58.048Z,13.50
2019-03-09T16:17:07.685Z,11.77
2019-03-09T16:22:13.909Z,12.63
2019-03-09T16:27:22.424Z,12.13
2019-03-09T16:32:30.389Z,16.93
2019-03-09T16:37:36.683Z,9.57
2019-03-09T16:42:42.883Z,11.73
2019-03-09T16:47:50.768Z,11.23
2019-03-09T16:52:56.874Z,10.73
2019-03-09T16:58:03.224Z,14.57
2019-03-09T17:03:10.531Z,11.30
2019-03-09T17:08:17.171Z,13.60
2019-03-09T17:13:24.329Z,14.87
2019-03-09T17:18:31.551Z,14.37
2019-03-09T17:23:39.546Z,14.67
2019-03-09T17:28:46.587Z,16.17
2019-03-09T17:33:52.945Z,13.17
2019-03-09T17:38:59.439Z,13.00
2019-03-09T17:44:07.447Z,13.10
2019-03-09T17:49:13.958Z,16.17
2019-03-09T17:54:22.315Z,16.60
2019-03-09T17:59:30.298Z,14.20
2019-03-09T18:04:38.166Z,13.93
2019-03-09T18:09:44.837Z,14.53
2019-03-09T18:14:51.665Z,13.03
2019-03-09T18:19:59.670Z,12.20
2019-03-09T18:25:08.115Z,20.10
2019-03-09T18:30:14.880Z,16.80
2019-03-09T18:35:22.181Z,28.63
2019-03-09T18:40:31.484Z,20.37
2019-03-09T18:45:39.479Z,15.83
2019-03-09T18:50:47.444Z,16.77
2019-03-09T18:55:59.282Z,19.83
2019-03-09T19:01:02.854Z,19.77
2019-03-09T19:06:10.835Z,17.20
2019-03-09T19:11:18.741Z,21.73
2019-03-09T19:16:25.343Z,14.17
2019-03-09T19:21:31.671Z,20.33
2019-03-09T19:26:39.678Z,19.07
2019-03-09T19:31:46.190Z,14.97
2019-03-09T19:36:53.258Z,18.73
2019-03-09T19:42:01.233Z,24.03
2019-03-09T19:47:09.072Z,14.63
2019-03-09T19:52:17.742Z,22.97
2019-03-09T19:57:25.727Z,22.57
2019-03-09T20:02:32.757Z,15.80
2019-03-09T20:07:39.099Z,18.33
2019-03-09T20:12:46.801Z,18.23
2019-03-09T20:17:53.203Z,15.27
2019-03-09T20:23:01.220Z,14.37
2019-03-09T20:28:10.235Z,15.97
2019-03-09T20:33:16.728Z,21.70
2019-03-09T20:38:23.425Z,13.00
2019-03-09T20:43:30.834Z,14.63
2019-03-09T20:48:38.490Z,22.87
2019-03-09T20:53:44.812Z,14.23
2019-03-09T20:58:51.576Z,15.40
2019-03-09T21:04:01.058Z,14.53
2019-03-09T21:09:09.852Z,13.77
2019-03-09T21:14:18.155Z,15.60
2019-03-09T21:19:24.625Z,12.90
2019-03-09T21:24:31.319Z,11.67
2019-03-09T21:29:37.846Z,13.93
2019-03-09T21:34:44.206Z,8.17
2019-03-09T21:39:51.400Z,9.77
2019-03-09T21:44:57.801Z,10.60
2019-03-09T21:50:04.672Z,16.42
2019-03-09T21:55:12.409Z,13.60
2019-03-09T22:00:20.558Z,7.70
2019-03-09T22:05:28.446Z,11.87
2019-03-09T22:10:35.023Z,7.07
2019-03-09T22:15:42.846Z,11.03
2019-03-09T22:20:50.870Z,15.57
2019-03-09T22:25:58.792Z,10.90
2019-03-09T22:31:05.251Z,9.83
2019-03-09T22:36:12.663Z,7.43
2019-03-09T22:41:19.146Z,8.57
2019-03-09T22:46:26.673Z,10.10
2019-03-09T22:51:33.202Z,8.70
2019-03-09T22:56:40.219Z,6.03
2019-03-09T23:01:48.010Z,7.97
2019-03-09T23:06:54.310Z,12.30
2019-03-09T23:12:01.649Z,11.07
2019-03-09T23:17:09.773Z,11.67
2019-03-09T23:22:16.462Z,8.93
2019-03-09T23:27:22.443Z,8.47
2019-03-09T23:32:30.147Z,10.83
2019-03-09T23:37:37.919Z,9.60
2019-03-09T23:42:44.149Z,10.03
2019-03-09T23:47:52.511Z,7.70
2019-03-09T23:53:00.559Z,7.93
2019-03-09T23:58:08.531Z,8.13
